sensor_id;sensor_type;location;lat;lon;timestamp;pressure;altitude;pressure_sealevel;temperature;humidity
74336;BME280;62755;-33.398;-70.572;2023-10-19T00:02:20;93358.59;;;21.57;41.31
74336;BME280;62755;-33.398;-70.572;2023-10-19T00:04:50;93366.31;;;21.58;41.50
74336;BME280;62755;-33.398;-70.572;2023-10-19T00:07:19;93360.78;;;21.53;41.72
74336;BME280;62755;-33.398;-70.572;2023-10-19T00:09:47;93369.63;;;21.48;41.44
74336;BME280;62755;-33.398;-70.572;2023-10-19T00:12:21;93374.03;;;21.60;41.38
74336;BME280;62755;-33.398;-70.572;2023-10-19T00:14:49;93376.22;;;21.56;41.16
74336;BME280;62755;-33.398;-70.572;2023-10-19T00:17:19;93375.88;;;21.34;41.72
74336;BME280;62755;-33.398;-70.572;2023-10-19T00:19:48;93380.44;;;21.57;41.42
74336;BME280;62755;-33.398;-70.572;2023-10-19T00:22:47;93377.84;;;21.48;41.45
74336;BME280;62755;-33.398;-70.572;2023-10-19T00:25:15;93386.44;;;21.61;41.43
74336;BME280;62755;-33.398;-70.572;2023-10-19T00:27:47;93390.16;;;21.78;41.04
74336;BME280;62755;-33.398;-70.572;2023-10-19T00:30:15;93383.41;;;21.88;40.81
74336;BME280;62755;-33.398;-70.572;2023-10-19T00:32:50;93377.94;;;21.88;40.80
74336;BME280;62755;-33.398;-70.572;2023-10-19T00:35:20;93391.50;;;21.82;40.75
74336;BME280;62755;-33.398;-70.572;2023-10-19T00:38:01;93385.56;;;21.84;41.01
74336;BME280;62755;-33.398;-70.572;2023-10-19T00:40:51;93396.03;;;21.71;40.94
74336;BME280;62755;-33.398;-70.572;2023-10-19T00:43:31;93395.47;;;21.67;41.39
74336;BME280;62755;-33.398;-70.572;2023-10-19T00:46:03;93396.50;;;21.84;40.87
74336;BME280;62755;-33.398;-70.572;2023-10-19T00:48:37;93395.63;;;21.93;40.79
74336;BME280;62755;-33.398;-70.572;2023-10-19T00:51:08;93382.09;;;21.69;41.33
74336;BME280;62755;-33.398;-70.572;2023-10-19T00:53:54;93394.13;;;21.77;41.40
74336;BME280;62755;-33.398;-70.572;2023-10-19T00:56:24;93404.16;;;21.51;41.88
74336;BME280;62755;-33.398;-70.572;2023-10-19T00:59:00;93404.00;;;21.40;42.33
74336;BME280;62755;-33.398;-70.572;2023-10-19T01:01:40;93403.22;;;21.54;42.01
74336;BME280;62755;-33.398;-70.572;2023-10-19T01:04:14;93399.81;;;21.59;42.07
74336;BME280;62755;-33.398;-70.572;2023-10-19T01:06:49;93387.41;;;21.58;42.11
74336;BME280;62755;-33.398;-70.572;2023-10-19T01:09:31;93399.34;;;21.60;42.24
74336;BME280;62755;-33.398;-70.572;2023-10-19T01:12:04;93400.78;;;21.27;42.76
74336;BME280;62755;-33.398;-70.572;2023-10-19T01:15:14;93403.06;;;21.14;42.37
74336;BME280;62755;-33.398;-70.572;2023-10-19T01:17:44;93405.06;;;20.89;42.90
74336;BME280;62755;-33.398;-70.572;2023-10-19T01:20:19;93412.25;;;20.87;42.81
74336;BME280;62755;-33.398;-70.572;2023-10-19T01:22:52;93410.72;;;20.71;42.95
74336;BME280;62755;-33.398;-70.572;2023-10-19T01:25:34;93406.28;;;20.74;42.75
74336;BME280;62755;-33.398;-70.572;2023-10-19T01:28:13;93405.84;;;20.75;42.83
74336;BME280;62755;-33.398;-70.572;2023-10-19T01:30:44;93410.72;;;20.86;43.05
74336;BME280;62755;-33.398;-70.572;2023-10-19T01:33:18;93403.56;;;20.74;43.06
74336;BME280;62755;-33.398;-70.572;2023-10-19T01:35:48;93404.41;;;20.65;43.14
74336;BME280;62755;-33.398;-70.572;2023-10-19T01:38:35;93400.47;;;20.43;43.46
74336;BME280;62755;-33.398;-70.572;2023-10-19T01:41:05;93409.03;;;20.50;43.69
74336;BME280;62755;-33.398;-70.572;2023-10-19T01:43:41;93405.31;;;20.62;43.79
74336;BME280;62755;-33.398;-70.572;2023-10-19T01:46:11;93400.88;;;20.50;43.87
74336;BME280;62755;-33.398;-70.572;2023-10-19T01:48:40;93380.22;;;20.44;43.78
74336;BME280;62755;-33.398;-70.572;2023-10-19T01:51:10;93406.25;;;20.59;43.83
74336;BME280;62755;-33.398;-70.572;2023-10-19T01:53:41;93398.09;;;20.59;43.71
74336;BME280;62755;-33.398;-70.572;2023-10-19T01:56:12;93397.81;;;20.57;43.59
74336;BME280;62755;-33.398;-70.572;2023-10-19T01:58:42;93395.41;;;20.50;43.99
74336;BME280;62755;-33.398;-70.572;2023-10-19T02:01:13;93386.47;;;20.35;43.99
74336;BME280;62755;-33.398;-70.572;2023-10-19T02:03:48;93388.97;;;20.24;44.20
74336;BME280;62755;-33.398;-70.572;2023-10-19T02:06:21;93395.91;;;20.25;44.05
74336;BME280;62755;-33.398;-70.572;2023-10-19T02:08:55;93387.13;;;20.30;43.82
74336;BME280;62755;-33.398;-70.572;2023-10-19T02:11:28;93366.94;;;20.13;44.03
74336;BME280;62755;-33.398;-70.572;2023-10-19T02:13:57;93382.59;;;20.27;44.00
74336;BME280;62755;-33.398;-70.572;2023-10-19T02:16:31;93379.47;;;20.20;44.14
74336;BME280;62755;-33.398;-70.572;2023-10-19T02:18:59;93374.13;;;20.25;44.14
74336;BME280;62755;-33.398;-70.572;2023-10-19T02:21:29;93370.94;;;20.27;44.09
74336;BME280;62755;-33.398;-70.572;2023-10-19T02:23:59;93376.97;;;20.31;44.10
74336;BME280;62755;-33.398;-70.572;2023-10-19T02:26:28;93377.16;;;20.27;43.97
74336;BME280;62755;-33.398;-70.572;2023-10-19T02:28:57;93342.59;;;20.09;43.97
74336;BME280;62755;-33.398;-70.572;2023-10-19T02:31:27;93374.91;;;20.40;44.08
74336;BME280;62755;-33.398;-70.572;2023-10-19T02:33:55;93373.13;;;20.37;44.17
74336;BME280;62755;-33.398;-70.572;2023-10-19T02:36:27;93368.84;;;20.45;43.98
74336;BME280;62755;-33.398;-70.572;2023-10-19T02:38:58;93375.75;;;20.32;44.43
74336;BME280;62755;-33.398;-70.572;2023-10-19T02:41:31;93364.22;;;20.37;44.14
74336;BME280;62755;-33.398;-70.572;2023-10-19T02:44:02;93375.09;;;20.37;43.96
74336;BME280;62755;-33.398;-70.572;2023-10-19T02:46:36;93370.41;;;20.37;44.19
74336;BME280;62755;-33.398;-70.572;2023-10-19T02:49:09;93376.28;;;20.59;43.84
74336;BME280;62755;-33.398;-70.572;2023-10-19T02:51:38;93366.47;;;20.38;43.71
74336;BME280;62755;-33.398;-70.572;2023-10-19T02:54:12;93368.06;;;20.30;43.95
74336;BME280;62755;-33.398;-70.572;2023-10-19T02:56:46;93368.16;;;20.36;44.05
74336;BME280;62755;-33.398;-70.572;2023-10-19T02:59:16;93345.13;;;20.13;44.02
74336;BME280;62755;-33.398;-70.572;2023-10-19T03:01:49;93364.03;;;20.40;43.74
74336;BME280;62755;-33.398;-70.572;2023-10-19T03:04:18;93367.88;;;20.48;43.75
74336;BME280;62755;-33.398;-70.572;2023-10-19T03:06:48;93361.28;;;20.40;43.69
74336;BME280;62755;-33.398;-70.572;2023-10-19T03:09:18;93355.66;;;20.29;44.15
74336;BME280;62755;-33.398;-70.572;2023-10-19T03:11:57;93362.91;;;20.32;44.11
74336;BME280;62755;-33.398;-70.572;2023-10-19T03:14:27;93356.50;;;20.35;43.91
74336;BME280;62755;-33.398;-70.572;2023-10-19T03:16:57;93359.16;;;20.44;43.67
74336;BME280;62755;-33.398;-70.572;2023-10-19T03:19:26;93354.66;;;20.41;43.81
74336;BME280;62755;-33.398;-70.572;2023-10-19T03:21:55;93351.53;;;20.10;44.02
74336;BME280;62755;-33.398;-70.572;2023-10-19T03:24:28;93354.56;;;19.88;44.85
74336;BME280;62755;-33.398;-70.572;2023-10-19T03:27:08;93353.38;;;19.80;45.23
74336;BME280;62755;-33.398;-70.572;2023-10-19T03:29:41;93349.31;;;19.76;45.52
74336;BME280;62755;-33.398;-70.572;2023-10-19T03:32:13;93338.31;;;19.94;45.04
74336;BME280;62755;-33.398;-70.572;2023-10-19T03:34:42;93342.13;;;20.11;44.87
74336;BME280;62755;-33.398;-70.572;2023-10-19T03:37:14;93339.59;;;20.07;44.75
74336;BME280;62755;-33.398;-70.572;2023-10-19T03:39:48;93333.19;;;19.96;44.95
74336;BME280;62755;-33.398;-70.572;2023-10-19T03:42:18;93331.03;;;20.00;44.54
74336;BME280;62755;-33.398;-70.572;2023-10-19T03:44:52;93334.34;;;19.80;45.12
74336;BME280;62755;-33.398;-70.572;2023-10-19T03:47:24;93328.72;;;19.84;45.39
74336;BME280;62755;-33.398;-70.572;2023-10-19T03:50:01;93323.28;;;19.84;45.38
74336;BME280;62755;-33.398;-70.572;2023-10-19T03:52:35;93322.94;;;19.91;45.43
74336;BME280;62755;-33.398;-70.572;2023-10-19T03:55:08;93324.06;;;19.99;45.26
74336;BME280;62755;-33.398;-70.572;2023-10-19T03:57:42;93323.50;;;19.95;45.15
74336;BME280;62755;-33.398;-70.572;2023-10-19T04:00:14;93323.22;;;19.93;44.99
74336;BME280;62755;-33.398;-70.572;2023-10-19T04:02:51;93319.75;;;19.92;45.22
74336;BME280;62755;-33.398;-70.572;2023-10-19T04:05:23;93321.63;;;19.54;45.81
74336;BME280;62755;-33.398;-70.572;2023-10-19T04:07:55;93328.53;;;18.89;47.20
74336;BME280;62755;-33.398;-70.572;2023-10-19T04:10:27;93317.44;;;19.11;47.12
74336;BME280;62755;-33.398;-70.572;2023-10-19T04:13:05;93301.81;;;19.20;46.92
74336;BME280;62755;-33.398;-70.572;2023-10-19T04:15:36;93310.56;;;19.34;46.77
74336;BME280;62755;-33.398;-70.572;2023-10-19T04:18:06;93305.06;;;19.43;46.36
74336;BME280;62755;-33.398;-70.572;2023-10-19T04:20:38;93294.56;;;19.26;46.74
74336;BME280;62755;-33.398;-70.572;2023-10-19T04:23:20;93302.72;;;19.26;46.46
74336;BME280;62755;-33.398;-70.572;2023-10-19T04:25:55;93303.66;;;19.14;47.00
74336;BME280;62755;-33.398;-70.572;2023-10-19T04:28:25;93294.38;;;19.06;46.94
74336;BME280;62755;-33.398;-70.572;2023-10-19T04:31:05;93291.59;;;19.15;46.75
74336;BME280;62755;-33.398;-70.572;2023-10-19T04:33:35;93285.22;;;19.18;46.58
74336;BME280;62755;-33.398;-70.572;2023-10-19T04:36:04;93279.19;;;19.14;46.41
74336;BME280;62755;-33.398;-70.572;2023-10-19T04:38:38;93286.50;;;19.08;46.67
74336;BME280;62755;-33.398;-70.572;2023-10-19T04:41:10;93283.81;;;18.99;47.29
74336;BME280;62755;-33.398;-70.572;2023-10-19T04:43:42;93271.75;;;18.91;47.20
74336;BME280;62755;-33.398;-70.572;2023-10-19T04:46:16;93268.84;;;19.04;46.66
74336;BME280;62755;-33.398;-70.572;2023-10-19T04:48:46;93267.19;;;19.06;46.53
74336;BME280;62755;-33.398;-70.572;2023-10-19T04:51:16;93260.28;;;18.87;46.96
74336;BME280;62755;-33.398;-70.572;2023-10-19T04:53:46;93255.97;;;18.81;46.80
74336;BME280;62755;-33.398;-70.572;2023-10-19T04:56:17;93256.69;;;18.81;46.64
74336;BME280;62755;-33.398;-70.572;2023-10-19T04:58:46;93252.25;;;18.93;46.73
74336;BME280;62755;-33.398;-70.572;2023-10-19T05:01:16;93247.84;;;19.04;46.59
74336;BME280;62755;-33.398;-70.572;2023-10-19T05:03:45;93244.84;;;19.02;46.68
74336;BME280;62755;-33.398;-70.572;2023-10-19T05:06:14;93241.94;;;18.73;47.38
74336;BME280;62755;-33.398;-70.572;2023-10-19T05:08:44;93244.22;;;18.75;47.29
74336;BME280;62755;-33.398;-70.572;2023-10-19T05:11:14;93240.22;;;18.34;46.94
74336;BME280;62755;-33.398;-70.572;2023-10-19T05:13:45;93232.47;;;18.60;46.62
74336;BME280;62755;-33.398;-70.572;2023-10-19T05:16:14;93238.72;;;18.51;46.41
74336;BME280;62755;-33.398;-70.572;2023-10-19T05:18:44;93235.09;;;18.27;46.52
74336;BME280;62755;-33.398;-70.572;2023-10-19T05:21:13;93240.25;;;18.16;47.17
74336;BME280;62755;-33.398;-70.572;2023-10-19T05:23:42;93217.91;;;18.30;46.94
74336;BME280;62755;-33.398;-70.572;2023-10-19T05:26:12;93217.59;;;18.28;47.00
74336;BME280;62755;-33.398;-70.572;2023-10-19T05:28:44;93222.09;;;18.40;46.81
74336;BME280;62755;-33.398;-70.572;2023-10-19T05:31:14;93206.44;;;18.44;46.65
74336;BME280;62755;-33.398;-70.572;2023-10-19T05:33:44;93203.69;;;18.53;46.59
74336;BME280;62755;-33.398;-70.572;2023-10-19T05:36:15;93205.94;;;18.55;46.51
74336;BME280;62755;-33.398;-70.572;2023-10-19T05:38:44;93201.00;;;18.35;46.59
74336;BME280;62755;-33.398;-70.572;2023-10-19T05:41:14;93194.53;;;18.32;46.58
74336;BME280;62755;-33.398;-70.572;2023-10-19T05:43:47;93189.84;;;18.33;46.25
74336;BME280;62755;-33.398;-70.572;2023-10-19T05:46:16;93185.47;;;18.26;45.93
74336;BME280;62755;-33.398;-70.572;2023-10-19T05:48:49;93155.53;;;18.03;46.20
74336;BME280;62755;-33.398;-70.572;2023-10-19T05:51:18;93173.59;;;18.15;46.34
74336;BME280;62755;-33.398;-70.572;2023-10-19T05:53:48;93172.38;;;18.25;45.91
74336;BME280;62755;-33.398;-70.572;2023-10-19T05:56:18;93170.22;;;18.38;46.03
74336;BME280;62755;-33.398;-70.572;2023-10-19T05:58:50;93168.50;;;18.08;46.43
74336;BME280;62755;-33.398;-70.572;2023-10-19T06:01:20;93162.19;;;18.02;45.92
74336;BME280;62755;-33.398;-70.572;2023-10-19T06:03:50;93151.00;;;18.09;46.00
74336;BME280;62755;-33.398;-70.572;2023-10-19T06:06:20;93155.53;;;18.12;45.45
74336;BME280;62755;-33.398;-70.572;2023-10-19T06:08:49;93145.28;;;18.07;45.56
74336;BME280;62755;-33.398;-70.572;2023-10-19T06:11:20;93139.97;;;18.12;45.35
74336;BME280;62755;-33.398;-70.572;2023-10-19T06:13:52;93137.63;;;17.96;45.49
74336;BME280;62755;-33.398;-70.572;2023-10-19T06:16:21;93135.69;;;17.88;45.63
74336;BME280;62755;-33.398;-70.572;2023-10-19T06:18:51;93126.97;;;17.75;45.98
74336;BME280;62755;-33.398;-70.572;2023-10-19T06:21:20;93117.16;;;17.77;45.89
74336;BME280;62755;-33.398;-70.572;2023-10-19T06:23:50;93117.03;;;17.81;45.75
74336;BME280;62755;-33.398;-70.572;2023-10-19T06:26:21;93116.84;;;17.84;45.47
74336;BME280;62755;-33.398;-70.572;2023-10-19T06:28:52;93111.72;;;17.77;45.35
74336;BME280;62755;-33.398;-70.572;2023-10-19T06:31:25;93114.88;;;17.94;45.15
74336;BME280;62755;-33.398;-70.572;2023-10-19T06:33:55;93112.91;;;17.94;45.20
74336;BME280;62755;-33.398;-70.572;2023-10-19T06:36:25;93104.91;;;17.91;45.06
74336;BME280;62755;-33.398;-70.572;2023-10-19T06:38:56;93097.06;;;17.93;45.47
74336;BME280;62755;-33.398;-70.572;2023-10-19T06:41:26;93089.81;;;17.99;45.26
74336;BME280;62755;-33.398;-70.572;2023-10-19T06:43:57;93090.16;;;17.92;45.35
74336;BME280;62755;-33.398;-70.572;2023-10-19T06:46:26;93068.69;;;18.03;44.86
74336;BME280;62755;-33.398;-70.572;2023-10-19T06:48:55;93071.03;;;17.86;45.42
74336;BME280;62755;-33.398;-70.572;2023-10-19T06:51:27;93072.63;;;18.02;44.94
74336;BME280;62755;-33.398;-70.572;2023-10-19T06:53:56;93065.38;;;18.08;44.90
74336;BME280;62755;-33.398;-70.572;2023-10-19T06:56:26;93064.13;;;18.18;44.55
74336;BME280;62755;-33.398;-70.572;2023-10-19T06:58:57;93057.78;;;18.21;44.78
74336;BME280;62755;-33.398;-70.572;2023-10-19T07:01:27;93058.13;;;18.14;44.50
74336;BME280;62755;-33.398;-70.572;2023-10-19T07:03:58;93046.69;;;18.01;44.79
74336;BME280;62755;-33.398;-70.572;2023-10-19T07:06:27;93048.63;;;17.77;45.01
74336;BME280;62755;-33.398;-70.572;2023-10-19T07:08:57;93058.88;;;17.64;44.92
74336;BME280;62755;-33.398;-70.572;2023-10-19T07:11:29;93053.44;;;17.73;45.03
74336;BME280;62755;-33.398;-70.572;2023-10-19T07:14:01;93046.50;;;17.81;44.43
74336;BME280;62755;-33.398;-70.572;2023-10-19T07:16:33;93044.72;;;17.69;44.34
74336;BME280;62755;-33.398;-70.572;2023-10-19T07:19:03;93045.78;;;17.44;44.69
74336;BME280;62755;-33.398;-70.572;2023-10-19T07:21:32;93044.19;;;17.19;45.43
74336;BME280;62755;-33.398;-70.572;2023-10-19T07:24:04;93051.38;;;17.49;44.74
74336;BME280;62755;-33.398;-70.572;2023-10-19T07:26:36;93048.19;;;17.60;44.85
74336;BME280;62755;-33.398;-70.572;2023-10-19T07:29:22;93048.81;;;17.55;44.84
74336;BME280;62755;-33.398;-70.572;2023-10-19T07:31:51;93042.19;;;17.56;44.77
74336;BME280;62755;-33.398;-70.572;2023-10-19T07:34:22;93043.25;;;17.49;44.91
74336;BME280;62755;-33.398;-70.572;2023-10-19T07:36:55;93047.16;;;17.30;45.52
74336;BME280;62755;-33.398;-70.572;2023-10-19T07:39:26;93047.78;;;16.98;46.13
74336;BME280;62755;-33.398;-70.572;2023-10-19T07:41:57;93043.72;;;17.03;46.48
74336;BME280;62755;-33.398;-70.572;2023-10-19T07:44:28;93044.78;;;17.14;46.71
74336;BME280;62755;-33.398;-70.572;2023-10-19T07:46:58;93035.44;;;17.33;46.23
74336;BME280;62755;-33.398;-70.572;2023-10-19T07:49:27;93038.75;;;17.28;45.86
74336;BME280;62755;-33.398;-70.572;2023-10-19T07:51:57;93043.25;;;17.22;45.87
74336;BME280;62755;-33.398;-70.572;2023-10-19T07:54:27;93030.16;;;17.30;45.70
74336;BME280;62755;-33.398;-70.572;2023-10-19T07:56:57;93030.91;;;17.30;45.82
74336;BME280;62755;-33.398;-70.572;2023-10-19T07:59:32;93025.75;;;17.41;45.55
74336;BME280;62755;-33.398;-70.572;2023-10-19T08:02:01;93028.19;;;17.30;45.62
74336;BME280;62755;-33.398;-70.572;2023-10-19T08:04:31;93031.22;;;17.32;45.79
74336;BME280;62755;-33.398;-70.572;2023-10-19T08:07:00;93026.22;;;17.40;45.49
74336;BME280;62755;-33.398;-70.572;2023-10-19T08:09:30;93031.81;;;17.36;45.64
74336;BME280;62755;-33.398;-70.572;2023-10-19T08:12:02;93029.69;;;17.40;45.38
74336;BME280;62755;-33.398;-70.572;2023-10-19T08:14:34;93025.19;;;17.37;46.04
74336;BME280;62755;-33.398;-70.572;2023-10-19T08:17:03;93026.69;;;17.38;46.15
74336;BME280;62755;-33.398;-70.572;2023-10-19T08:19:35;93019.31;;;17.30;45.50
74336;BME280;62755;-33.398;-70.572;2023-10-19T08:22:05;93019.31;;;17.30;46.34
74336;BME280;62755;-33.398;-70.572;2023-10-19T08:24:34;93017.94;;;17.34;46.12
74336;BME280;62755;-33.398;-70.572;2023-10-19T08:27:04;93008.06;;;17.04;46.79
74336;BME280;62755;-33.398;-70.572;2023-10-19T08:29:35;93014.84;;;17.00;46.86
74336;BME280;62755;-33.398;-70.572;2023-10-19T08:32:05;93015.28;;;17.16;46.61
74336;BME280;62755;-33.398;-70.572;2023-10-19T08:34:35;93011.69;;;17.01;45.85
74336;BME280;62755;-33.398;-70.572;2023-10-19T08:37:05;93010.50;;;16.84;47.03
74336;BME280;62755;-33.398;-70.572;2023-10-19T08:39:34;93021.78;;;16.92;46.47
74336;BME280;62755;-33.398;-70.572;2023-10-19T08:42:05;93008.66;;;16.54;46.57
74336;BME280;62755;-33.398;-70.572;2023-10-19T08:44:36;92981.59;;;16.54;47.72
74336;BME280;62755;-33.398;-70.572;2023-10-19T08:47:06;93012.38;;;16.47;48.90
74336;BME280;62755;-33.398;-70.572;2023-10-19T08:49:35;92993.34;;;16.51;47.65
74336;BME280;62755;-33.398;-70.572;2023-10-19T08:52:05;92984.47;;;16.78;48.02
74336;BME280;62755;-33.398;-70.572;2023-10-19T08:54:36;92966.81;;;16.19;47.62
74336;BME280;62755;-33.398;-70.572;2023-10-19T08:57:05;92968.59;;;16.13;47.81
74336;BME280;62755;-33.398;-70.572;2023-10-19T08:59:37;92970.72;;;16.36;47.99
74336;BME280;62755;-33.398;-70.572;2023-10-19T09:02:07;92979.75;;;16.42;47.09
74336;BME280;62755;-33.398;-70.572;2023-10-19T09:04:42;92963.69;;;16.38;46.86
74336;BME280;62755;-33.398;-70.572;2023-10-19T09:07:12;92951.53;;;16.52;47.37
74336;BME280;62755;-33.398;-70.572;2023-10-19T09:09:42;92963.25;;;16.67;46.78
74336;BME280;62755;-33.398;-70.572;2023-10-19T09:12:14;92954.53;;;16.72;45.80
74336;BME280;62755;-33.398;-70.572;2023-10-19T09:14:45;92952.69;;;16.42;46.28
74336;BME280;62755;-33.398;-70.572;2023-10-19T09:17:14;92952.09;;;16.29;46.29
74336;BME280;62755;-33.398;-70.572;2023-10-19T09:19:45;92948.81;;;16.52;45.69
74336;BME280;62755;-33.398;-70.572;2023-10-19T09:22:15;92937.97;;;16.70;45.47
74336;BME280;62755;-33.398;-70.572;2023-10-19T09:24:50;92938.88;;;16.58;45.52
74336;BME280;62755;-33.398;-70.572;2023-10-19T09:27:20;92937.09;;;16.64;45.03
74336;BME280;62755;-33.398;-70.572;2023-10-19T09:29:51;92932.56;;;16.61;45.31
74336;BME280;62755;-33.398;-70.572;2023-10-19T09:32:22;92937.38;;;16.75;45.18
74336;BME280;62755;-33.398;-70.572;2023-10-19T09:34:52;92929.38;;;16.81;44.59
74336;BME280;62755;-33.398;-70.572;2023-10-19T09:37:22;92940.09;;;16.84;44.85
74336;BME280;62755;-33.398;-70.572;2023-10-19T09:39:53;92937.06;;;16.73;45.71
74336;BME280;62755;-33.398;-70.572;2023-10-19T09:42:25;92930.75;;;16.67;45.21
74336;BME280;62755;-33.398;-70.572;2023-10-19T09:45:00;92921.13;;;16.39;45.21
74336;BME280;62755;-33.398;-70.572;2023-10-19T09:47:35;92950.91;;;16.39;46.02
74336;BME280;62755;-33.398;-70.572;2023-10-19T09:50:08;92950.75;;;16.42;44.67
74336;BME280;62755;-33.398;-70.572;2023-10-19T09:52:39;92946.66;;;16.20;45.60
74336;BME280;62755;-33.398;-70.572;2023-10-19T09:55:27;92936.88;;;16.31;45.66
74336;BME280;62755;-33.398;-70.572;2023-10-19T09:58:02;92938.72;;;16.25;45.17
74336;BME280;62755;-33.398;-70.572;2023-10-19T10:00:37;92936.75;;;16.35;45.07
74336;BME280;62755;-33.398;-70.572;2023-10-19T10:06:16;92936.75;;;16.17;44.07
74336;BME280;62755;-33.398;-70.572;2023-10-19T10:08:48;92936.56;;;16.02;44.07
74336;BME280;62755;-33.398;-70.572;2023-10-19T10:11:22;92938.09;;;16.03;43.85
74336;BME280;62755;-33.398;-70.572;2023-10-19T10:13:54;92934.94;;;16.05;43.76
74336;BME280;62755;-33.398;-70.572;2023-10-19T10:16:26;92930.69;;;15.86;43.41
74336;BME280;62755;-33.398;-70.572;2023-10-19T10:18:57;92923.81;;;16.03;43.22
74336;BME280;62755;-33.398;-70.572;2023-10-19T10:21:28;92926.81;;;16.14;43.00
74336;BME280;62755;-33.398;-70.572;2023-10-19T10:24:02;92922.88;;;15.97;42.89
74336;BME280;62755;-33.398;-70.572;2023-10-19T10:26:58;92931.34;;;16.17;43.20
74336;BME280;62755;-33.398;-70.572;2023-10-19T10:29:30;92917.19;;;16.22;43.04
74336;BME280;62755;-33.398;-70.572;2023-10-19T10:32:01;92928.03;;;16.31;43.68
74336;BME280;62755;-33.398;-70.572;2023-10-19T10:34:44;92922.16;;;16.32;44.18
74336;BME280;62755;-33.398;-70.572;2023-10-19T10:37:16;92928.03;;;16.22;44.54
74336;BME280;62755;-33.398;-70.572;2023-10-19T10:39:45;92924.59;;;16.21;44.81
74336;BME280;62755;-33.398;-70.572;2023-10-19T10:42:16;92919.00;;;16.16;45.59
74336;BME280;62755;-33.398;-70.572;2023-10-19T10:44:46;92920.81;;;16.28;45.63
74336;BME280;62755;-33.398;-70.572;2023-10-19T10:47:21;92924.88;;;16.23;45.67
74336;BME280;62755;-33.398;-70.572;2023-10-19T10:49:52;92929.22;;;16.12;46.50
74336;BME280;62755;-33.398;-70.572;2023-10-19T10:52:26;92929.06;;;16.06;47.20
74336;BME280;62755;-33.398;-70.572;2023-10-19T10:54:57;92911.19;;;16.00;47.19
74336;BME280;62755;-33.398;-70.572;2023-10-19T10:57:31;92929.22;;;16.12;46.68
74336;BME280;62755;-33.398;-70.572;2023-10-19T11:00:05;92935.22;;;16.16;47.27
74336;BME280;62755;-33.398;-70.572;2023-10-19T11:02:38;92937.63;;;16.14;47.29
74336;BME280;62755;-33.398;-70.572;2023-10-19T11:05:10;92941.41;;;16.34;46.74
74336;BME280;62755;-33.398;-70.572;2023-10-19T11:07:41;92934.34;;;16.28;46.97
74336;BME280;62755;-33.398;-70.572;2023-10-19T11:10:10;92934.78;;;16.26;47.15
74336;BME280;62755;-33.398;-70.572;2023-10-19T11:12:40;92938.69;;;16.43;46.59
74336;BME280;62755;-33.398;-70.572;2023-10-19T11:15:10;92926.66;;;16.35;47.20
74336;BME280;62755;-33.398;-70.572;2023-10-19T11:17:47;92950.31;;;16.53;47.05
74336;BME280;62755;-33.398;-70.572;2023-10-19T11:20:25;92944.44;;;16.27;48.34
74336;BME280;62755;-33.398;-70.572;2023-10-19T11:22:57;92951.94;;;16.23;47.69
74336;BME280;62755;-33.398;-70.572;2023-10-19T11:25:28;92946.38;;;16.27;48.51
74336;BME280;62755;-33.398;-70.572;2023-10-19T11:27:58;92947.88;;;16.46;47.75
74336;BME280;62755;-33.398;-70.572;2023-10-19T11:30:29;92957.84;;;16.49;48.25
74336;BME280;62755;-33.398;-70.572;2023-10-19T11:33:01;92947.00;;;16.67;47.88
74336;BME280;62755;-33.398;-70.572;2023-10-19T11:35:31;92934.19;;;16.77;47.49
74336;BME280;62755;-33.398;-70.572;2023-10-19T11:38:01;92947.59;;;16.89;47.26
74336;BME280;62755;-33.398;-70.572;2023-10-19T11:40:31;92948.03;;;16.97;47.00
74336;BME280;62755;-33.398;-70.572;2023-10-19T11:43:01;92948.78;;;16.97;46.80
74336;BME280;62755;-33.398;-70.572;2023-10-19T11:45:30;92947.72;;;17.04;47.19
74336;BME280;62755;-33.398;-70.572;2023-10-19T11:48:04;92948.41;;;17.22;46.22
74336;BME280;62755;-33.398;-70.572;2023-10-19T11:50:34;92943.28;;;17.24;46.97
74336;BME280;62755;-33.398;-70.572;2023-10-19T11:53:03;92946.94;;;17.21;46.62
74336;BME280;62755;-33.398;-70.572;2023-10-19T11:55:33;92935.44;;;17.35;46.16
74336;BME280;62755;-33.398;-70.572;2023-10-19T11:58:02;92945.34;;;17.38;46.10
74336;BME280;62755;-33.398;-70.572;2023-10-19T12:00:32;92944.47;;;17.32;45.84
74336;BME280;62755;-33.398;-70.572;2023-10-19T12:03:06;92945.03;;;17.45;45.67
74336;BME280;62755;-33.398;-70.572;2023-10-19T12:05:37;92955.13;;;17.45;46.20
74336;BME280;62755;-33.398;-70.572;2023-10-19T12:08:06;92949.25;;;17.46;46.30
74336;BME280;62755;-33.398;-70.572;2023-10-19T12:10:36;92940.34;;;17.46;45.80
74336;BME280;62755;-33.398;-70.572;2023-10-19T12:13:05;92929.38;;;17.49;45.98
74336;BME280;62755;-33.398;-70.572;2023-10-19T12:15:35;92937.47;;;17.59;46.11
74336;BME280;62755;-33.398;-70.572;2023-10-19T12:18:06;92934.41;;;17.75;45.97
74336;BME280;62755;-33.398;-70.572;2023-10-19T12:20:37;92949.00;;;17.77;46.26
74336;BME280;62755;-33.398;-70.572;2023-10-19T12:23:12;92951.25;;;17.79;45.55
74336;BME280;62755;-33.398;-70.572;2023-10-19T12:25:41;92941.41;;;17.90;44.91
74336;BME280;62755;-33.398;-70.572;2023-10-19T12:28:11;92944.06;;;17.99;46.82
74336;BME280;62755;-33.398;-70.572;2023-10-19T12:30:42;92942.72;;;17.95;44.35
74336;BME280;62755;-33.398;-70.572;2023-10-19T12:33:13;92938.63;;;17.99;44.33
74336;BME280;62755;-33.398;-70.572;2023-10-19T12:35:43;92931.53;;;18.02;44.21
74336;BME280;62755;-33.398;-70.572;2023-10-19T12:38:18;92937.19;;;18.13;43.24
74336;BME280;62755;-33.398;-70.572;2023-10-19T12:40:49;92934.75;;;18.15;42.96
74336;BME280;62755;-33.398;-70.572;2023-10-19T12:43:19;92942.91;;;18.15;42.81
74336;BME280;62755;-33.398;-70.572;2023-10-19T12:45:49;92941.94;;;18.27;41.79
74336;BME280;62755;-33.398;-70.572;2023-10-19T12:48:26;92923.28;;;18.20;41.66
74336;BME280;62755;-33.398;-70.572;2023-10-19T12:51:00;92940.41;;;18.26;41.95
74336;BME280;62755;-33.398;-70.572;2023-10-19T12:53:30;92929.41;;;18.29;40.91
74336;BME280;62755;-33.398;-70.572;2023-10-19T12:56:00;92944.25;;;18.43;40.83
74336;BME280;62755;-33.398;-70.572;2023-10-19T12:58:29;92932.75;;;18.48;40.02